Main page
METAR-TAF:

METAR-TAF

Airports :

Ankara Esenboğa, Turkey

Esenboğa International Airport

latitude: 40-07N, longitude: 032-59E, elevation: 953 m

Current weather observation

The report was made 48 minutes ago, at 18:20 UTC
Wind 2 kt from variable directions
Temperature -2°C
Humidity 80%
Pressure 1018 hPa
Visibility 10 km or more
no clouds below 1500 m and no cumulonimbus

METAR: LTAC 191820Z VRB02KT CAVOK M02/M05 Q1018 NOSIG RMK RWY21L 14003KT 100V170 RWY03L 25002KT RWY21R VRB02KT

Time: 22:08 (19:08 UTC)

Forecast

The report was made 2 hours and 28 minutes ago, at 16:40 UTC
Forecast valid from 19 at 18 UTC to 20 at 18 UTC
Wind 2 kt from variable directions
Visibility 10 km or more
no clouds below 1500 m and no cumulonimbus
Probability 30%
from 20 at 03 UTC to 20 at 07 UTC
Visibility: 2500 m
mist
Becoming
from 20 at 07 UTC to 20 at 09 UTC
Scattered clouds at a height of 4000 ft

TAF: LTAC 191640Z 1918/2018 VRB02KT CAVOK PROB30 2003/2007 2500 BR BECMG 2007/2009 SCT040

Weather observations and forecasts of more than 4000 airports (METAR and TAF reports).

The available stations are represented by yellow and red dots on the map.

Hover mouse over dot to see the name of the station.

Then click to see weather observations and forecasts.

To change the map : click on the green buttons with a black cross to zoom in, on the green button with a dash to zoom out, or on the green arrows for adjacent maps.


METAR-TAF: